sensor_id;sensor_type;location;lat;lon;timestamp;pressure;altitude;pressure_sealevel;temperature;humidity
26823;BME280;14852;51.910;8.878;2023-09-19T00:02:18;98862.75;;;19.53;60.41
26823;BME280;14852;51.910;8.878;2023-09-19T00:04:44;98855.34;;;19.48;60.44
26823;BME280;14852;51.910;8.878;2023-09-19T00:07:10;98868.81;;;19.45;60.99
26823;BME280;14852;51.910;8.878;2023-09-19T00:09:35;98868.28;;;19.42;60.88
26823;BME280;14852;51.910;8.878;2023-09-19T00:12:07;98861.69;;;19.38;61.11
26823;BME280;14852;51.910;8.878;2023-09-19T00:14:35;98866.59;;;19.33;61.06
26823;BME280;14852;51.910;8.878;2023-09-19T00:17:04;98864.94;;;19.32;60.96
26823;BME280;14852;51.910;8.878;2023-09-19T00:19:37;98876.16;;;19.34;60.35
26823;BME280;14852;51.910;8.878;2023-09-19T00:22:08;98873.63;;;19.24;60.94
26823;BME280;14852;51.910;8.878;2023-09-19T00:24:34;98870.47;;;19.21;60.89
26823;BME280;14852;51.910;8.878;2023-09-19T00:26:59;98873.41;;;19.17;61.36
26823;BME280;14852;51.910;8.878;2023-09-19T00:29:26;98878.84;;;19.16;61.38
26823;BME280;14852;51.910;8.878;2023-09-19T00:31:55;98886.09;;;19.14;61.39
26823;BME280;14852;51.910;8.878;2023-09-19T00:34:23;98886.09;;;19.14;61.45
26823;BME280;14852;51.910;8.878;2023-09-19T00:36:51;98886.91;;;19.14;61.20
26823;BME280;14852;51.910;8.878;2023-09-19T00:39:19;98890.69;;;19.12;61.36
26823;BME280;14852;51.910;8.878;2023-09-19T00:41:46;98896.09;;;19.10;61.37
26823;BME280;14852;51.910;8.878;2023-09-19T00:44:11;98901.38;;;19.10;61.43
26823;BME280;14852;51.910;8.878;2023-09-19T00:46:38;98902.34;;;19.09;61.64
26823;BME280;14852;51.910;8.878;2023-09-19T00:49:03;98905.97;;;19.08;61.69
26823;BME280;14852;51.910;8.878;2023-09-19T00:51:29;98911.91;;;19.10;61.89
26823;BME280;14852;51.910;8.878;2023-09-19T00:53:55;98906.63;;;19.10;61.96
26823;BME280;14852;51.910;8.878;2023-09-19T00:56:22;98909.13;;;19.12;62.10
26823;BME280;14852;51.910;8.878;2023-09-19T00:58:48;98912.44;;;19.14;61.87
26823;BME280;14852;51.910;8.878;2023-09-19T01:01:14;98907.81;;;19.16;61.53
26823;BME280;14852;51.910;8.878;2023-09-19T01:03:41;98911.94;;;19.18;61.33
26823;BME280;14852;51.910;8.878;2023-09-19T01:06:07;98908.47;;;19.18;61.66
26823;BME280;14852;51.910;8.878;2023-09-19T01:08:38;98920.00;;;19.17;61.30
26823;BME280;14852;51.910;8.878;2023-09-19T01:11:21;98918.19;;;19.17;61.50
26823;BME280;14852;51.910;8.878;2023-09-19T01:14:06;98919.66;;;19.12;61.77
26823;BME280;14852;51.910;8.878;2023-09-19T01:16:57;98926.03;;;19.09;61.32
26823;BME280;14852;51.910;8.878;2023-09-19T01:22:46;98935.91;;;19.07;61.55
26823;BME280;14852;51.910;8.878;2023-09-19T01:28:52;98928.38;;;19.12;61.42
26823;BME280;14852;51.910;8.878;2023-09-19T01:31:23;98932.81;;;19.12;61.44
26823;BME280;14852;51.910;8.878;2023-09-19T01:36:23;98940.41;;;19.15;61.35
26823;BME280;14852;51.910;8.878;2023-09-19T01:38:51;98945.69;;;19.15;61.28
26823;BME280;14852;51.910;8.878;2023-09-19T01:41:30;98944.69;;;19.16;61.21
26823;BME280;14852;51.910;8.878;2023-09-19T01:44:00;98954.03;;;19.10;61.72
26823;BME280;14852;51.910;8.878;2023-09-19T01:46:39;98962.75;;;19.11;61.32
26823;BME280;14852;51.910;8.878;2023-09-19T01:49:44;98956.81;;;19.09;61.14
26823;BME280;14852;51.910;8.878;2023-09-19T01:52:13;98956.44;;;19.04;61.82
26823;BME280;14852;51.910;8.878;2023-09-19T01:54:50;98961.69;;;19.04;61.54
26823;BME280;14852;51.910;8.878;2023-09-19T01:57:28;98967.78;;;19.04;61.37
26823;BME280;14852;51.910;8.878;2023-09-19T02:00:09;98970.81;;;19.09;60.90
26823;BME280;14852;51.910;8.878;2023-09-19T02:02:44;98973.59;;;19.08;61.27
26823;BME280;14852;51.910;8.878;2023-09-19T02:05:10;98981.50;;;19.08;61.10
26823;BME280;14852;51.910;8.878;2023-09-19T02:07:38;98977.50;;;19.04;61.40
26823;BME280;14852;51.910;8.878;2023-09-19T02:10:06;98981.28;;;19.01;61.11
26823;BME280;14852;51.910;8.878;2023-09-19T02:12:33;98982.72;;;18.96;61.41
26823;BME280;14852;51.910;8.878;2023-09-19T02:15:03;98982.03;;;18.94;61.21
26823;BME280;14852;51.910;8.878;2023-09-19T02:17:32;98983.34;;;18.90;60.96
26823;BME280;14852;51.910;8.878;2023-09-19T02:19:58;98989.72;;;18.87;61.05
26823;BME280;14852;51.910;8.878;2023-09-19T02:22:27;98997.75;;;18.86;61.20
26823;BME280;14852;51.910;8.878;2023-09-19T02:24:53;98998.06;;;18.83;61.37
26823;BME280;14852;51.910;8.878;2023-09-19T02:27:19;99000.03;;;18.80;61.01
26823;BME280;14852;51.910;8.878;2023-09-19T02:29:45;98997.22;;;18.82;61.00
26823;BME280;14852;51.910;8.878;2023-09-19T02:32:11;99006.78;;;18.83;61.14
26823;BME280;14852;51.910;8.878;2023-09-19T02:34:37;98996.09;;;18.85;60.77
26823;BME280;14852;51.910;8.878;2023-09-19T02:37:07;98992.78;;;18.83;60.81
26823;BME280;14852;51.910;8.878;2023-09-19T02:39:36;99002.97;;;18.77;61.19
26823;BME280;14852;51.910;8.878;2023-09-19T02:42:02;98997.16;;;18.74;60.85
26823;BME280;14852;51.910;8.878;2023-09-19T02:44:30;99007.16;;;18.70;61.21
26823;BME280;14852;51.910;8.878;2023-09-19T02:46:55;99005.34;;;18.71;61.32
26823;BME280;14852;51.910;8.878;2023-09-19T02:49:23;99000.09;;;18.71;61.04
26823;BME280;14852;51.910;8.878;2023-09-19T02:51:49;99011.97;;;18.75;60.82
26823;BME280;14852;51.910;8.878;2023-09-19T02:54:15;99002.13;;;18.77;60.88
26823;BME280;14852;51.910;8.878;2023-09-19T02:56:41;99003.78;;;18.78;61.08
26823;BME280;14852;51.910;8.878;2023-09-19T02:59:07;99009.19;;;18.76;60.96
26823;BME280;14852;51.910;8.878;2023-09-19T03:01:36;99005.75;;;18.76;60.72
26823;BME280;14852;51.910;8.878;2023-09-19T03:04:05;99007.69;;;18.74;61.06
26823;BME280;14852;51.910;8.878;2023-09-19T03:06:32;99010.31;;;18.74;60.79
26823;BME280;14852;51.910;8.878;2023-09-19T03:08:58;98998.69;;;18.76;60.52
26823;BME280;14852;51.910;8.878;2023-09-19T03:11:26;99004.22;;;18.73;60.38
26823;BME280;14852;51.910;8.878;2023-09-19T03:13:56;98993.03;;;18.71;60.97
26823;BME280;14852;51.910;8.878;2023-09-19T03:16:22;99011.59;;;18.70;60.98
26823;BME280;14852;51.910;8.878;2023-09-19T03:18:50;99015.22;;;18.69;60.86
26823;BME280;14852;51.910;8.878;2023-09-19T03:21:17;99016.03;;;18.69;60.81
26823;BME280;14852;51.910;8.878;2023-09-19T03:23:45;99024.75;;;18.70;60.77
26823;BME280;14852;51.910;8.878;2023-09-19T03:26:12;99029.03;;;18.71;60.39
26823;BME280;14852;51.910;8.878;2023-09-19T03:28:40;99031.00;;;18.69;60.73
26823;BME280;14852;51.910;8.878;2023-09-19T03:31:07;99029.50;;;18.66;60.55
26823;BME280;14852;51.910;8.878;2023-09-19T03:33:35;99038.50;;;18.64;60.40
26823;BME280;14852;51.910;8.878;2023-09-19T03:36:02;99037.16;;;18.60;60.58
26823;BME280;14852;51.910;8.878;2023-09-19T03:38:33;99042.56;;;18.58;60.45
26823;BME280;14852;51.910;8.878;2023-09-19T03:41:00;99040.88;;;18.57;60.61
26823;BME280;14852;51.910;8.878;2023-09-19T03:43:27;99033.81;;;18.58;60.83
26823;BME280;14852;51.910;8.878;2023-09-19T03:45:54;99039.78;;;18.60;60.29
26823;BME280;14852;51.910;8.878;2023-09-19T03:48:23;99045.03;;;18.60;60.36
26823;BME280;14852;51.910;8.878;2023-09-19T03:50:50;99042.00;;;18.55;60.57
26823;BME280;14852;51.910;8.878;2023-09-19T03:53:18;99037.88;;;18.52;60.44
26823;BME280;14852;51.910;8.878;2023-09-19T03:55:45;99036.50;;;18.48;60.76
26823;BME280;14852;51.910;8.878;2023-09-19T03:58:11;99036.13;;;18.43;60.72
26823;BME280;14852;51.910;8.878;2023-09-19T04:00:38;99033.09;;;18.38;60.69
26823;BME280;14852;51.910;8.878;2023-09-19T04:03:04;99031.91;;;18.32;60.65
26823;BME280;14852;51.910;8.878;2023-09-19T04:05:32;99034.94;;;18.28;60.49
26823;BME280;14852;51.910;8.878;2023-09-19T04:08:00;99028.88;;;18.27;60.71
26823;BME280;14852;51.910;8.878;2023-09-19T04:10:26;99038.69;;;18.25;60.66
26823;BME280;14852;51.910;8.878;2023-09-19T04:12:54;99032.75;;;18.23;60.29
26823;BME280;14852;51.910;8.878;2023-09-19T04:15:23;99045.25;;;18.21;60.33
26823;BME280;14852;51.910;8.878;2023-09-19T04:17:50;99041.38;;;18.16;60.31
26823;BME280;14852;51.910;8.878;2023-09-19T04:20:20;99039.03;;;18.13;60.26
26823;BME280;14852;51.910;8.878;2023-09-19T04:22:47;99034.09;;;18.09;60.72
26823;BME280;14852;51.910;8.878;2023-09-19T04:25:13;99042.41;;;18.05;60.44
26823;BME280;14852;51.910;8.878;2023-09-19T04:27:39;99039.91;;;18.03;60.35
26823;BME280;14852;51.910;8.878;2023-09-19T04:30:07;99053.19;;;18.02;60.45
26823;BME280;14852;51.910;8.878;2023-09-19T04:32:37;99045.06;;;17.95;60.26
26823;BME280;14852;51.910;8.878;2023-09-19T04:35:09;99038.28;;;17.93;60.39
26823;BME280;14852;51.910;8.878;2023-09-19T04:37:40;99040.38;;;17.89;60.31
26823;BME280;14852;51.910;8.878;2023-09-19T04:40:10;99056.72;;;17.83;60.13
26823;BME280;14852;51.910;8.878;2023-09-19T04:42:45;99059.78;;;17.79;60.10
26823;BME280;14852;51.910;8.878;2023-09-19T04:45:18;99070.84;;;17.82;60.27
26823;BME280;14852;51.910;8.878;2023-09-19T04:47:45;99078.31;;;17.77;59.88
26823;BME280;14852;51.910;8.878;2023-09-19T04:50:12;99079.13;;;17.78;59.92
26823;BME280;14852;51.910;8.878;2023-09-19T04:52:42;99086.19;;;17.77;59.85
26823;BME280;14852;51.910;8.878;2023-09-19T04:55:14;99090.47;;;17.78;59.81
26823;BME280;14852;51.910;8.878;2023-09-19T04:57:47;99092.44;;;17.76;59.90
26823;BME280;14852;51.910;8.878;2023-09-19T05:00:15;99092.03;;;17.71;59.94
26823;BME280;14852;51.910;8.878;2023-09-19T05:02:43;99093.81;;;17.70;59.95
26823;BME280;14852;51.910;8.878;2023-09-19T05:05:09;99090.38;;;17.70;60.07
26823;BME280;14852;51.910;8.878;2023-09-19T05:07:42;99101.84;;;17.69;59.94
26823;BME280;14852;51.910;8.878;2023-09-19T05:10:09;99101.56;;;17.62;60.08
26823;BME280;14852;51.910;8.878;2023-09-19T05:12:36;99110.81;;;17.57;60.02
26823;BME280;14852;51.910;8.878;2023-09-19T05:15:06;99107.66;;;17.53;59.96
26823;BME280;14852;51.910;8.878;2023-09-19T05:17:33;99113.44;;;17.47;60.07
26823;BME280;14852;51.910;8.878;2023-09-19T05:20:03;99115.69;;;17.42;60.21
26823;BME280;14852;51.910;8.878;2023-09-19T05:22:57;99128.13;;;17.40;60.43
26823;BME280;14852;51.910;8.878;2023-09-19T05:25:23;99130.19;;;17.46;59.90
26823;BME280;14852;51.910;8.878;2023-09-19T05:27:48;99138.19;;;17.45;60.04
26823;BME280;14852;51.910;8.878;2023-09-19T05:30:16;99138.06;;;17.46;59.49
26823;BME280;14852;51.910;8.878;2023-09-19T05:32:41;99132.53;;;17.49;59.43
26823;BME280;14852;51.910;8.878;2023-09-19T05:35:08;99136.41;;;17.45;59.61
26823;BME280;14852;51.910;8.878;2023-09-19T05:37:35;99135.03;;;17.41;59.54
26823;BME280;14852;51.910;8.878;2023-09-19T05:40:02;99142.22;;;17.39;59.57
26823;BME280;14852;51.910;8.878;2023-09-19T05:42:32;99152.84;;;17.37;59.82
26823;BME280;14852;51.910;8.878;2023-09-19T05:44:58;99147.47;;;17.39;59.81
26823;BME280;14852;51.910;8.878;2023-09-19T05:47:24;99155.47;;;17.47;59.26
26823;BME280;14852;51.910;8.878;2023-09-19T05:49:50;99159.19;;;17.54;59.12
26823;BME280;14852;51.910;8.878;2023-09-19T05:52:16;99174.56;;;17.68;58.71
26823;BME280;14852;51.910;8.878;2023-09-19T05:54:43;99169.72;;;17.83;58.08
26823;BME280;14852;51.910;8.878;2023-09-19T05:57:09;99167.78;;;17.95;58.13
26823;BME280;14852;51.910;8.878;2023-09-19T05:59:37;99173.00;;;18.04;57.88
26823;BME280;14852;51.910;8.878;2023-09-19T06:02:05;99181.19;;;18.11;57.49
26823;BME280;14852;51.910;8.878;2023-09-19T06:04:32;99181.00;;;18.22;57.49
26823;BME280;14852;51.910;8.878;2023-09-19T06:06:57;99191.63;;;18.30;57.19
26823;BME280;14852;51.910;8.878;2023-09-19T06:09:24;99186.75;;;18.45;57.19
26823;BME280;14852;51.910;8.878;2023-09-19T06:11:49;99185.53;;;18.76;56.38
26823;BME280;14852;51.910;8.878;2023-09-19T06:14:15;99182.97;;;19.57;54.67
26823;BME280;14852;51.910;8.878;2023-09-19T06:16:43;99185.78;;;20.93;51.11
26823;BME280;14852;51.910;8.878;2023-09-19T06:19:09;99188.53;;;22.55;47.85
26823;BME280;14852;51.910;8.878;2023-09-19T06:21:36;99172.59;;;24.02;44.49
26823;BME280;14852;51.910;8.878;2023-09-19T06:24:02;99163.00;;;24.89;43.25
26823;BME280;14852;51.910;8.878;2023-09-19T06:26:28;99153.47;;;25.94;41.52
26823;BME280;14852;51.910;8.878;2023-09-19T06:28:55;99150.03;;;26.69;40.01
26823;BME280;14852;51.910;8.878;2023-09-19T06:31:21;99147.22;;;27.52;39.34
26823;BME280;14852;51.910;8.878;2023-09-19T06:33:52;99143.75;;;28.37;38.72
26823;BME280;14852;51.910;8.878;2023-09-19T06:36:18;99140.97;;;29.14;37.18
26823;BME280;14852;51.910;8.878;2023-09-19T06:38:45;99132.13;;;29.52;36.71
26823;BME280;14852;51.910;8.878;2023-09-19T06:41:10;99147.91;;;29.22;36.80
26823;BME280;14852;51.910;8.878;2023-09-19T06:43:37;99142.88;;;28.43;37.96
26823;BME280;14852;51.910;8.878;2023-09-19T06:46:02;99143.44;;;28.65;37.63
26823;BME280;14852;51.910;8.878;2023-09-19T06:48:29;99139.41;;;29.32;37.24
26823;BME280;14852;51.910;8.878;2023-09-19T06:50:58;99134.31;;;29.62;36.24
26823;BME280;14852;51.910;8.878;2023-09-19T06:53:26;99149.16;;;29.19;37.51
26823;BME280;14852;51.910;8.878;2023-09-19T06:55:52;99139.00;;;28.32;38.30
26823;BME280;14852;51.910;8.878;2023-09-19T06:58:18;99144.13;;;27.28;39.35
26823;BME280;14852;51.910;8.878;2023-09-19T07:00:46;99140.66;;;26.74;40.75
26823;BME280;14852;51.910;8.878;2023-09-19T07:03:13;99149.50;;;26.40;40.41
26823;BME280;14852;51.910;8.878;2023-09-19T07:05:40;99155.94;;;25.96;41.92
26823;BME280;14852;51.910;8.878;2023-09-19T07:08:07;99168.03;;;25.13;42.41
26823;BME280;14852;51.910;8.878;2023-09-19T07:10:33;99163.31;;;24.35;44.57
26823;BME280;14852;51.910;8.878;2023-09-19T07:13:02;99170.63;;;23.81;45.02
26823;BME280;14852;51.910;8.878;2023-09-19T07:15:32;99166.25;;;23.42;45.85
26823;BME280;14852;51.910;8.878;2023-09-19T07:18:05;99174.72;;;22.84;46.20
26823;BME280;14852;51.910;8.878;2023-09-19T07:20:32;99176.66;;;22.43;47.21
26823;BME280;14852;51.910;8.878;2023-09-19T07:23:01;99187.47;;;22.09;47.56
26823;BME280;14852;51.910;8.878;2023-09-19T07:25:30;99189.44;;;21.83;47.85
26823;BME280;14852;51.910;8.878;2023-09-19T07:27:57;99201.84;;;21.74;48.28
26823;BME280;14852;51.910;8.878;2023-09-19T07:30:25;99198.06;;;21.68;47.71
26823;BME280;14852;51.910;8.878;2023-09-19T07:32:52;99201.50;;;21.93;47.14
26823;BME280;14852;51.910;8.878;2023-09-19T07:35:18;99204.16;;;22.34;46.18
26823;BME280;14852;51.910;8.878;2023-09-19T07:37:46;99196.22;;;22.73;45.80
26823;BME280;14852;51.910;8.878;2023-09-19T07:40:17;99199.06;;;23.19;44.74
26823;BME280;14852;51.910;8.878;2023-09-19T07:42:44;99199.28;;;23.86;43.68
26823;BME280;14852;51.910;8.878;2023-09-19T07:45:13;99210.41;;;24.41;42.43
26823;BME280;14852;51.910;8.878;2023-09-19T07:47:50;99207.09;;;25.13;41.46
26823;BME280;14852;51.910;8.878;2023-09-19T07:50:18;99202.66;;;26.26;39.20
26823;BME280;14852;51.910;8.878;2023-09-19T07:52:49;99205.38;;;26.61;39.30
26823;BME280;14852;51.910;8.878;2023-09-19T07:55:20;99203.16;;;26.37;40.01
26823;BME280;14852;51.910;8.878;2023-09-19T07:57:49;99195.41;;;26.76;38.89
26823;BME280;14852;51.910;8.878;2023-09-19T08:00:15;99191.41;;;27.00;38.63
26823;BME280;14852;51.910;8.878;2023-09-19T08:02:42;99189.66;;;26.79;38.83
26823;BME280;14852;51.910;8.878;2023-09-19T08:05:09;99188.81;;;26.72;39.22
26823;BME280;14852;51.910;8.878;2023-09-19T08:07:40;99199.41;;;26.59;39.66
26823;BME280;14852;51.910;8.878;2023-09-19T08:10:08;99200.66;;;26.28;39.82
26823;BME280;14852;51.910;8.878;2023-09-19T08:12:37;99190.03;;;25.86;40.53
26823;BME280;14852;51.910;8.878;2023-09-19T08:15:03;99188.31;;;25.57;40.83
26823;BME280;14852;51.910;8.878;2023-09-19T08:17:35;99203.84;;;25.17;41.54
26823;BME280;14852;51.910;8.878;2023-09-19T08:20:01;99202.06;;;24.88;42.37
26823;BME280;14852;51.910;8.878;2023-09-19T08:22:28;99200.34;;;24.66;42.55
26823;BME280;14852;51.910;8.878;2023-09-19T08:24:54;99201.78;;;24.54;42.11
26823;BME280;14852;51.910;8.878;2023-09-19T08:27:21;99208.28;;;24.51;43.08
26823;BME280;14852;51.910;8.878;2023-09-19T08:29:47;99195.56;;;24.47;43.00
26823;BME280;14852;51.910;8.878;2023-09-19T08:32:13;99189.31;;;24.69;42.53
26823;BME280;14852;51.910;8.878;2023-09-19T08:34:40;99198.66;;;24.95;41.83
26823;BME280;14852;51.910;8.878;2023-09-19T08:37:05;99188.47;;;25.13;41.18
26823;BME280;14852;51.910;8.878;2023-09-19T08:39:31;99195.91;;;25.39;40.59
26823;BME280;14852;51.910;8.878;2023-09-19T08:42:00;99192.72;;;25.50;40.65
26823;BME280;14852;51.910;8.878;2023-09-19T08:44:27;99208.28;;;25.46;40.53
26823;BME280;14852;51.910;8.878;2023-09-19T08:47:06;99210.78;;;25.33;40.81
26823;BME280;14852;51.910;8.878;2023-09-19T08:49:52;99210.94;;;25.10;41.43
26823;BME280;14852;51.910;8.878;2023-09-19T08:52:36;99218.91;;;24.81;42.07
26823;BME280;14852;51.910;8.878;2023-09-19T08:55:03;99217.22;;;24.21;42.59
26823;BME280;14852;51.910;8.878;2023-09-19T08:57:36;99232.53;;;23.96;43.69
26823;BME280;14852;51.910;8.878;2023-09-19T09:00:08;99229.75;;;23.67;43.26
26823;BME280;14852;51.910;8.878;2023-09-19T09:02:40;99223.56;;;23.43;43.58
26823;BME280;14852;51.910;8.878;2023-09-19T09:05:11;99226.59;;;23.40;44.57
26823;BME280;14852;51.910;8.878;2023-09-19T09:07:38;99225.84;;;23.55;43.65
26823;BME280;14852;51.910;8.878;2023-09-19T09:10:05;99230.25;;;23.39;44.11
26823;BME280;14852;51.910;8.878;2023-09-19T09:12:30;99233.06;;;23.38;44.02
26823;BME280;14852;51.910;8.878;2023-09-19T09:14:57;99228.09;;;23.35;44.11
26823;BME280;14852;51.910;8.878;2023-09-19T09:17:26;99234.97;;;23.21;44.14
26823;BME280;14852;51.910;8.878;2023-09-19T09:19:55;99239.53;;;23.04;44.74
26823;BME280;14852;51.910;8.878;2023-09-19T09:22:21;99242.19;;;23.04;44.81
26823;BME280;14852;51.910;8.878;2023-09-19T09:24:54;99241.53;;;23.02;44.94
26823;BME280;14852;51.910;8.878;2023-09-19T09:27:24;99245.03;;;22.95;44.55
26823;BME280;14852;51.910;8.878;2023-09-19T09:29:52;99233.66;;;22.78;45.15
26823;BME280;14852;51.910;8.878;2023-09-19T09:32:25;99239.97;;;22.69;45.22
26823;BME280;14852;51.910;8.878;2023-09-19T09:34:56;99241.13;;;22.66;44.82
26823;BME280;14852;51.910;8.878;2023-09-19T09:37:23;99235.50;;;22.69;45.46
26823;BME280;14852;51.910;8.878;2023-09-19T09:42:36;99235.31;;;22.71;45.42
26823;BME280;14852;51.910;8.878;2023-09-19T09:45:20;99242.28;;;22.80;44.89
26823;BME280;14852;51.910;8.878;2023-09-19T09:48:09;99241.91;;;22.91;45.30
26823;BME280;14852;51.910;8.878;2023-09-19T09:50:48;99251.13;;;23.03;44.47
26823;BME280;14852;51.910;8.878;2023-09-19T09:53:28;99236.19;;;23.10;44.70
26823;BME280;14852;51.910;8.878;2023-09-19T09:56:07;99242.13;;;23.13;44.52
26823;BME280;14852;51.910;8.878;2023-09-19T09:58:38;99247.16;;;23.07;44.76
26823;BME280;14852;51.910;8.878;2023-09-19T10:01:14;99235.75;;;22.99;44.74
26823;BME280;14852;51.910;8.878;2023-09-19T10:03:42;99259.25;;;23.02;44.38
26823;BME280;14852;51.910;8.878;2023-09-19T10:06:16;99242.97;;;23.13;44.24
26823;BME280;14852;51.910;8.878;2023-09-19T10:09:08;99231.50;;;23.21;44.40
26823;BME280;14852;51.910;8.878;2023-09-19T10:12:03;99232.91;;;23.31;44.18
26823;BME280;14852;51.910;8.878;2023-09-19T10:14:37;99237.94;;;23.26;44.15
26823;BME280;14852;51.910;8.878;2023-09-19T10:17:07;99252.34;;;23.24;44.62
26823;BME280;14852;51.910;8.878;2023-09-19T10:19:55;99240.25;;;23.29;44.35
26823;BME280;14852;51.910;8.878;2023-09-19T10:22:26;99228.66;;;23.22;44.28
26823;BME280;14852;51.910;8.878;2023-09-19T10:24:53;99225.19;;;23.22;44.32
26823;BME280;14852;51.910;8.878;2023-09-19T10:27:21;99228.38;;;23.17;43.76
26823;BME280;14852;51.910;8.878;2023-09-19T10:29:52;99234.63;;;23.24;44.14
26823;BME280;14852;51.910;8.878;2023-09-19T10:32:23;99227.28;;;23.34;43.44
26823;BME280;14852;51.910;8.878;2023-09-19T10:34:51;99237.81;;;23.42;43.78
26823;BME280;14852;51.910;8.878;2023-09-19T10:37:21;99233.84;;;23.46;43.63
26823;BME280;14852;51.910;8.878;2023-09-19T10:39:52;99238.66;;;23.51;43.56
26823;BME280;14852;51.910;8.878;2023-09-19T10:42:20;99250.53;;;23.55;43.73
26823;BME280;14852;51.910;8.878;2023-09-19T10:44:51;99246.56;;;23.59;43.76
26823;BME280;14852;51.910;8.878;2023-09-19T10:47:21;99244.22;;;23.64;43.01
26823;BME280;14852;51.910;8.878;2023-09-19T10:49:50;99237.44;;;23.62;42.99
26823;BME280;14852;51.910;8.878;2023-09-19T10:52:22;99240.34;;;23.67;43.39
26823;BME280;14852;51.910;8.878;2023-09-19T10:54:52;99238.34;;;23.69;43.23
26823;BME280;14852;51.910;8.878;2023-09-19T10:57:23;99238.34;;;23.69;43.44
26823;BME280;14852;51.910;8.878;2023-09-19T11:06:37;99232.59;;;23.88;43.47
26823;BME280;14852;51.910;8.878;2023-09-19T11:09:02;99235.53;;;23.93;43.15
26823;BME280;14852;51.910;8.878;2023-09-19T11:30:45;99220.66;;;24.59;41.33
26823;BME280;14852;51.910;8.878;2023-09-19T11:36:12;99209.72;;;24.25;40.98
26823;BME280;14852;51.910;8.878;2023-09-19T11:46:52;99206.00;;;24.48;41.15
26823;BME280;14852;51.910;8.878;2023-09-19T11:49:28;99190.53;;;24.52;40.63
26823;BME280;14852;51.910;8.878;2023-09-19T11:51:57;99192.19;;;24.68;40.57
26823;BME280;14852;51.910;8.878;2023-09-19T11:54:25;99190.59;;;24.73;40.04
26823;BME280;14852;51.910;8.878;2023-09-19T11:56:54;99192.91;;;24.76;40.02
26823;BME280;14852;51.910;8.878;2023-09-19T11:59:24;99188.31;;;24.85;40.18
26823;BME280;14852;51.910;8.878;2023-09-19T12:01:58;99195.44;;;24.84;39.75
26823;BME280;14852;51.910;8.878;2023-09-19T12:04:40;99203.88;;;24.73;40.17
26823;BME280;14852;51.910;8.878;2023-09-19T12:07:14;99194.44;;;24.71;40.46
26823;BME280;14852;51.910;8.878;2023-09-19T12:09:43;99192.63;;;24.71;39.69
26823;BME280;14852;51.910;8.878;2023-09-19T12:12:11;99194.44;;;24.71;39.97
26823;BME280;14852;51.910;8.878;2023-09-19T12:14:48;99190.34;;;24.68;39.25
26823;BME280;14852;51.910;8.878;2023-09-19T12:17:14;99199.75;;;24.71;39.90
26823;BME280;14852;51.910;8.878;2023-09-19T12:19:53;99211.31;;;24.78;39.68
26823;BME280;14852;51.910;8.878;2023-09-19T12:22:19;99205.00;;;24.79;39.42
26823;BME280;14852;51.910;8.878;2023-09-19T12:24:48;99197.03;;;24.79;39.63
26823;BME280;14852;51.910;8.878;2023-09-19T12:27:14;99193.97;;;24.82;39.07
26823;BME280;14852;51.910;8.878;2023-09-19T12:29:48;99195.72;;;24.89;39.87
26823;BME280;14852;51.910;8.878;2023-09-19T12:32:35;99200.22;;;25.04;39.20
26823;BME280;14852;51.910;8.878;2023-09-19T12:35:07;99192.50;;;25.09;38.77
26823;BME280;14852;51.910;8.878;2023-09-19T12:37:51;99188.88;;;24.95;39.47
26823;BME280;14852;51.910;8.878;2023-09-19T12:40:21;99169.06;;;24.98;39.24
26823;BME280;14852;51.910;8.878;2023-09-19T12:42:49;99175.94;;;24.92;38.82
26823;BME280;14852;51.910;8.878;2023-09-19T12:45:16;99170.53;;;24.85;39.48
26823;BME280;14852;51.910;8.878;2023-09-19T12:48:25;99168.44;;;24.96;39.70
26823;BME280;14852;51.910;8.878;2023-09-19T12:51:08;99167.41;;;24.82;39.21
26823;BME280;14852;51.910;8.878;2023-09-19T12:53:43;99174.13;;;24.78;39.13
26823;BME280;14852;51.910;8.878;2023-09-19T12:56:12;99164.03;;;24.73;39.23
26823;BME280;14852;51.910;8.878;2023-09-19T12:58:57;99177.84;;;24.83;39.71
26823;BME280;14852;51.910;8.878;2023-09-19T13:01:27;99177.13;;;24.89;39.03
26823;BME280;14852;51.910;8.878;2023-09-19T13:04:19;99162.66;;;24.92;39.49
26823;BME280;14852;51.910;8.878;2023-09-19T13:06:50;99166.97;;;24.78;39.01
26823;BME280;14852;51.910;8.878;2023-09-19T13:09:19;99171.94;;;24.67;38.93
26823;BME280;14852;51.910;8.878;2023-09-19T13:11:46;99172.28;;;24.64;39.17
26823;BME280;14852;51.910;8.878;2023-09-19T13:14:28;99160.91;;;24.70;39.41
26823;BME280;14852;51.910;8.878;2023-09-19T13:17:07;99163.22;;;24.58;39.07
26823;BME280;14852;51.910;8.878;2023-09-19T13:19:47;99168.81;;;24.48;39.06
26823;BME280;14852;51.910;8.878;2023-09-19T13:22:45;99162.78;;;24.40;39.03
26823;BME280;14852;51.910;8.878;2023-09-19T13:25:20;99160.94;;;24.40;39.24
26823;BME280;14852;51.910;8.878;2023-09-19T13:27:51;99168.72;;;24.42;38.56
26823;BME280;14852;51.910;8.878;2023-09-19T13:30:19;99167.72;;;24.43;38.86
26823;BME280;14852;51.910;8.878;2023-09-19T13:32:45;99161.22;;;24.45;38.70
26823;BME280;14852;51.910;8.878;2023-09-19T13:35:13;99158.84;;;24.50;39.07
26823;BME280;14852;51.910;8.878;2023-09-19T13:37:40;99167.53;;;24.59;38.23
26823;BME280;14852;51.910;8.878;2023-09-19T13:40:14;99152.16;;;24.54;38.51
26823;BME280;14852;51.910;8.878;2023-09-19T13:42:41;99148.09;;;24.59;38.32
26823;BME280;14852;51.910;8.878;2023-09-19T13:45:08;99145.56;;;24.50;38.50
26823;BME280;14852;51.910;8.878;2023-09-19T13:47:38;99150.16;;;24.57;39.03
26823;BME280;14852;51.910;8.878;2023-09-19T13:50:05;99143.06;;;24.64;38.55
26823;BME280;14852;51.910;8.878;2023-09-19T13:52:31;99136.00;;;24.71;39.01
26823;BME280;14852;51.910;8.878;2023-09-19T13:54:58;99143.59;;;24.74;38.57
26823;BME280;14852;51.910;8.878;2023-09-19T13:57:26;99162.72;;;24.84;38.56
26823;BME280;14852;51.910;8.878;2023-09-19T13:59:55;99151.75;;;24.87;38.37
26823;BME280;14852;51.910;8.878;2023-09-19T14:02:22;99159.72;;;24.72;38.47
26823;BME280;14852;51.910;8.878;2023-09-19T14:04:49;99147.19;;;24.66;38.77